sensor_id;sensor_type;location;lat;lon;timestamp;P1;durP1;ratioP1;P2;durP2;ratioP2
4355;SDS011;64374;51.482;7.408;2023-07-13T00:01:14;8.20;;;2.10;;
4355;SDS011;64374;51.482;7.408;2023-07-13T00:03:44;5.07;;;1.50;;
4355;SDS011;64374;51.482;7.408;2023-07-13T00:06:12;4.83;;;2.33;;
4355;SDS011;64374;51.482;7.408;2023-07-13T00:08:43;5.27;;;1.90;;
4355;SDS011;64374;51.482;7.408;2023-07-13T00:11:12;3.17;;;1.40;;
4355;SDS011;64374;51.482;7.408;2023-07-13T00:13:41;3.83;;;1.73;;
4355;SDS011;64374;51.482;7.408;2023-07-13T00:16:16;3.63;;;1.70;;
4355;SDS011;64374;51.482;7.408;2023-07-13T00:18:48;8.50;;;1.90;;
4355;SDS011;64374;51.482;7.408;2023-07-13T00:21:17;3.13;;;1.83;;
4355;SDS011;64374;51.482;7.408;2023-07-13T00:23:48;4.80;;;1.67;;
4355;SDS011;64374;51.482;7.408;2023-07-13T00:26:17;5.23;;;1.93;;
4355;SDS011;64374;51.482;7.408;2023-07-13T00:28:47;4.50;;;2.13;;
4355;SDS011;64374;51.482;7.408;2023-07-13T00:31:16;8.53;;;2.27;;
4355;SDS011;64374;51.482;7.408;2023-07-13T00:33:46;4.80;;;2.07;;
4355;SDS011;64374;51.482;7.408;2023-07-13T00:36:14;4.50;;;1.73;;
4355;SDS011;64374;51.482;7.408;2023-07-13T00:38:42;4.97;;;2.00;;
4355;SDS011;64374;51.482;7.408;2023-07-13T00:41:13;4.60;;;2.17;;
4355;SDS011;64374;51.482;7.408;2023-07-13T00:43:42;7.50;;;2.43;;
4355;SDS011;64374;51.482;7.408;2023-07-13T00:46:12;11.17;;;1.90;;
4355;SDS011;64374;51.482;7.408;2023-07-13T00:48:47;10.73;;;2.03;;
4355;SDS011;64374;51.482;7.408;2023-07-13T00:51:20;6.47;;;1.63;;
4355;SDS011;64374;51.482;7.408;2023-07-13T00:53:54;5.23;;;1.70;;
4355;SDS011;64374;51.482;7.408;2023-07-13T00:56:28;7.93;;;2.47;;
4355;SDS011;64374;51.482;7.408;2023-07-13T00:58:59;4.07;;;2.20;;
4355;SDS011;64374;51.482;7.408;2023-07-13T01:01:27;7.70;;;2.20;;
4355;SDS011;64374;51.482;7.408;2023-07-13T01:03:57;4.37;;;2.13;;
4355;SDS011;64374;51.482;7.408;2023-07-13T01:06:25;6.90;;;2.23;;
4355;SDS011;64374;51.482;7.408;2023-07-13T01:08:54;4.40;;;1.87;;
4355;SDS011;64374;51.482;7.408;2023-07-13T01:11:24;5.80;;;1.63;;
4355;SDS011;64374;51.482;7.408;2023-07-13T01:13:53;5.40;;;2.10;;
4355;SDS011;64374;51.482;7.408;2023-07-13T01:16:24;1.90;;;1.60;;
4355;SDS011;64374;51.482;7.408;2023-07-13T01:18:54;8.87;;;2.27;;
4355;SDS011;64374;51.482;7.408;2023-07-13T01:21:26;5.83;;;2.20;;
4355;SDS011;64374;51.482;7.408;2023-07-13T01:23:55;9.00;;;2.20;;
4355;SDS011;64374;51.482;7.408;2023-07-13T01:26:24;2.93;;;1.70;;
4355;SDS011;64374;51.482;7.408;2023-07-13T01:28:52;7.07;;;1.60;;
4355;SDS011;64374;51.482;7.408;2023-07-13T01:31:22;8.47;;;2.10;;
4355;SDS011;64374;51.482;7.408;2023-07-13T01:33:51;5.77;;;1.47;;
4355;SDS011;64374;51.482;7.408;2023-07-13T01:36:20;6.33;;;2.20;;
4355;SDS011;64374;51.482;7.408;2023-07-13T01:38:50;4.30;;;1.93;;
4355;SDS011;64374;51.482;7.408;2023-07-13T01:41:19;8.00;;;2.20;;
4355;SDS011;64374;51.482;7.408;2023-07-13T01:43:52;6.10;;;2.00;;
4355;SDS011;64374;51.482;7.408;2023-07-13T01:46:21;6.43;;;2.20;;
4355;SDS011;64374;51.482;7.408;2023-07-13T01:48:50;3.80;;;2.30;;
4355;SDS011;64374;51.482;7.408;2023-07-13T01:51:19;8.53;;;2.10;;
4355;SDS011;64374;51.482;7.408;2023-07-13T01:53:48;7.83;;;2.80;;
4355;SDS011;64374;51.482;7.408;2023-07-13T01:56:18;7.97;;;2.03;;
4355;SDS011;64374;51.482;7.408;2023-07-13T01:58:47;6.53;;;1.80;;
4355;SDS011;64374;51.482;7.408;2023-07-13T02:01:16;5.40;;;1.87;;
4355;SDS011;64374;51.482;7.408;2023-07-13T02:03:46;5.80;;;2.10;;
4355;SDS011;64374;51.482;7.408;2023-07-13T02:06:14;7.43;;;2.10;;
4355;SDS011;64374;51.482;7.408;2023-07-13T02:08:43;6.00;;;1.63;;
4355;SDS011;64374;51.482;7.408;2023-07-13T02:11:12;19.87;;;2.40;;
4355;SDS011;64374;51.482;7.408;2023-07-13T02:16:31;7.57;;;1.57;;
4355;SDS011;64374;51.482;7.408;2023-07-13T02:18:59;7.40;;;2.40;;
4355;SDS011;64374;51.482;7.408;2023-07-13T02:21:28;4.03;;;1.40;;
4355;SDS011;64374;51.482;7.408;2023-07-13T02:23:56;4.73;;;1.70;;
4355;SDS011;64374;51.482;7.408;2023-07-13T02:26:27;6.80;;;2.03;;
4355;SDS011;64374;51.482;7.408;2023-07-13T02:28:55;6.77;;;2.00;;
4355;SDS011;64374;51.482;7.408;2023-07-13T02:31:24;5.30;;;1.70;;
4355;SDS011;64374;51.482;7.408;2023-07-13T02:33:53;7.63;;;1.87;;
4355;SDS011;64374;51.482;7.408;2023-07-13T02:36:22;5.83;;;1.70;;
4355;SDS011;64374;51.482;7.408;2023-07-13T02:38:50;9.73;;;2.00;;
4355;SDS011;64374;51.482;7.408;2023-07-13T02:41:19;4.90;;;1.70;;
4355;SDS011;64374;51.482;7.408;2023-07-13T02:43:49;5.77;;;2.00;;
4355;SDS011;64374;51.482;7.408;2023-07-13T02:46:17;7.03;;;1.97;;
4355;SDS011;64374;51.482;7.408;2023-07-13T02:48:47;7.07;;;2.13;;
4355;SDS011;64374;51.482;7.408;2023-07-13T02:51:15;10.43;;;2.13;;
4355;SDS011;64374;51.482;7.408;2023-07-13T02:53:43;5.17;;;1.80;;
4355;SDS011;64374;51.482;7.408;2023-07-13T02:56:11;4.03;;;1.70;;
4355;SDS011;64374;51.482;7.408;2023-07-13T02:58:43;6.23;;;1.90;;
4355;SDS011;64374;51.482;7.408;2023-07-13T03:01:13;5.13;;;2.23;;
4355;SDS011;64374;51.482;7.408;2023-07-13T03:03:46;5.60;;;1.90;;
4355;SDS011;64374;51.482;7.408;2023-07-13T03:06:15;3.53;;;1.83;;
4355;SDS011;64374;51.482;7.408;2023-07-13T03:08:48;6.30;;;2.50;;
4355;SDS011;64374;51.482;7.408;2023-07-13T03:11:17;9.93;;;2.63;;
4355;SDS011;64374;51.482;7.408;2023-07-13T03:13:53;6.80;;;1.90;;
4355;SDS011;64374;51.482;7.408;2023-07-13T03:16:24;7.80;;;2.23;;
4355;SDS011;64374;51.482;7.408;2023-07-13T03:18:53;2.53;;;1.60;;
4355;SDS011;64374;51.482;7.408;2023-07-13T03:21:22;6.70;;;2.30;;
4355;SDS011;64374;51.482;7.408;2023-07-13T03:23:50;6.17;;;2.43;;
4355;SDS011;64374;51.482;7.408;2023-07-13T03:26:19;6.17;;;2.40;;
4355;SDS011;64374;51.482;7.408;2023-07-13T03:28:48;5.60;;;2.20;;
4355;SDS011;64374;51.482;7.408;2023-07-13T03:31:22;6.60;;;2.00;;
4355;SDS011;64374;51.482;7.408;2023-07-13T03:33:53;6.80;;;1.90;;
4355;SDS011;64374;51.482;7.408;2023-07-13T03:36:22;6.07;;;1.97;;
4355;SDS011;64374;51.482;7.408;2023-07-13T03:38:56;4.90;;;2.07;;
4355;SDS011;64374;51.482;7.408;2023-07-13T03:41:33;8.23;;;2.87;;
4355;SDS011;64374;51.482;7.408;2023-07-13T03:44:02;6.50;;;1.97;;
4355;SDS011;64374;51.482;7.408;2023-07-13T03:46:32;6.07;;;2.17;;
4355;SDS011;64374;51.482;7.408;2023-07-13T03:49:04;3.10;;;1.57;;
4355;SDS011;64374;51.482;7.408;2023-07-13T03:51:33;4.03;;;1.80;;
4355;SDS011;64374;51.482;7.408;2023-07-13T03:54:02;3.40;;;1.97;;
4355;SDS011;64374;51.482;7.408;2023-07-13T03:56:31;7.60;;;2.27;;
4355;SDS011;64374;51.482;7.408;2023-07-13T03:59:03;3.23;;;2.07;;
4355;SDS011;64374;51.482;7.408;2023-07-13T04:01:32;5.53;;;1.93;;
4355;SDS011;64374;51.482;7.408;2023-07-13T04:04:01;6.13;;;2.30;;
4355;SDS011;64374;51.482;7.408;2023-07-13T04:06:30;8.03;;;2.40;;
4355;SDS011;64374;51.482;7.408;2023-07-13T04:09:03;6.27;;;2.40;;
4355;SDS011;64374;51.482;7.408;2023-07-13T04:11:32;7.60;;;2.07;;
4355;SDS011;64374;51.482;7.408;2023-07-13T04:14:03;7.87;;;1.97;;
4355;SDS011;64374;51.482;7.408;2023-07-13T04:16:34;6.50;;;1.43;;
4355;SDS011;64374;51.482;7.408;2023-07-13T04:19:03;9.40;;;2.10;;
4355;SDS011;64374;51.482;7.408;2023-07-13T04:21:31;4.53;;;1.83;;
4355;SDS011;64374;51.482;7.408;2023-07-13T04:24:00;6.00;;;2.27;;
4355;SDS011;64374;51.482;7.408;2023-07-13T04:26:29;4.50;;;2.00;;
4355;SDS011;64374;51.482;7.408;2023-07-13T04:28:58;7.90;;;2.27;;
4355;SDS011;64374;51.482;7.408;2023-07-13T04:31:26;4.37;;;1.90;;
4355;SDS011;64374;51.482;7.408;2023-07-13T04:33:56;7.97;;;2.00;;
4355;SDS011;64374;51.482;7.408;2023-07-13T04:36:25;6.90;;;2.13;;
4355;SDS011;64374;51.482;7.408;2023-07-13T04:38:54;4.37;;;1.80;;
4355;SDS011;64374;51.482;7.408;2023-07-13T04:41:22;5.63;;;2.20;;
4355;SDS011;64374;51.482;7.408;2023-07-13T04:43:51;5.90;;;2.13;;
4355;SDS011;64374;51.482;7.408;2023-07-13T04:46:22;7.80;;;2.60;;
4355;SDS011;64374;51.482;7.408;2023-07-13T04:48:52;3.87;;;2.10;;
4355;SDS011;64374;51.482;7.408;2023-07-13T04:51:22;7.33;;;2.30;;
4355;SDS011;64374;51.482;7.408;2023-07-13T04:53:53;7.80;;;1.80;;
4355;SDS011;64374;51.482;7.408;2023-07-13T04:56:29;7.20;;;2.23;;
4355;SDS011;64374;51.482;7.408;2023-07-13T04:59:19;5.57;;;2.20;;
4355;SDS011;64374;51.482;7.408;2023-07-13T05:01:48;5.87;;;2.23;;
4355;SDS011;64374;51.482;7.408;2023-07-13T05:04:16;4.80;;;2.30;;
4355;SDS011;64374;51.482;7.408;2023-07-13T05:06:46;4.50;;;1.50;;
4355;SDS011;64374;51.482;7.408;2023-07-13T05:09:15;6.63;;;2.20;;
4355;SDS011;64374;51.482;7.408;2023-07-13T05:11:43;6.30;;;2.27;;
4355;SDS011;64374;51.482;7.408;2023-07-13T05:14:11;7.00;;;2.70;;
4355;SDS011;64374;51.482;7.408;2023-07-13T05:16:39;3.63;;;1.97;;
4355;SDS011;64374;51.482;7.408;2023-07-13T05:19:08;14.57;;;1.90;;
4355;SDS011;64374;51.482;7.408;2023-07-13T05:21:36;10.00;;;2.27;;
4355;SDS011;64374;51.482;7.408;2023-07-13T05:24:06;9.23;;;2.50;;
4355;SDS011;64374;51.482;7.408;2023-07-13T05:26:50;5.17;;;1.97;;
4355;SDS011;64374;51.482;7.408;2023-07-13T05:29:20;6.70;;;2.20;;
4355;SDS011;64374;51.482;7.408;2023-07-13T05:31:49;7.47;;;2.20;;
4355;SDS011;64374;51.482;7.408;2023-07-13T05:34:17;12.30;;;3.10;;
4355;SDS011;64374;51.482;7.408;2023-07-13T05:36:47;10.37;;;3.03;;
4355;SDS011;64374;51.482;7.408;2023-07-13T05:39:19;9.63;;;2.20;;
4355;SDS011;64374;51.482;7.408;2023-07-13T05:42:09;3.97;;;2.33;;
4355;SDS011;64374;51.482;7.408;2023-07-13T05:44:38;7.73;;;2.00;;
4355;SDS011;64374;51.482;7.408;2023-07-13T05:47:07;8.27;;;2.83;;
4355;SDS011;64374;51.482;7.408;2023-07-13T05:49:37;7.17;;;1.80;;
4355;SDS011;64374;51.482;7.408;2023-07-13T05:52:06;5.83;;;2.47;;
4355;SDS011;64374;51.482;7.408;2023-07-13T05:54:36;8.00;;;3.30;;
4355;SDS011;64374;51.482;7.408;2023-07-13T05:57:05;6.43;;;2.40;;
4355;SDS011;64374;51.482;7.408;2023-07-13T05:59:33;16.30;;;3.70;;
4355;SDS011;64374;51.482;7.408;2023-07-13T06:02:04;13.50;;;3.47;;
4355;SDS011;64374;51.482;7.408;2023-07-13T06:04:34;8.87;;;2.80;;
4355;SDS011;64374;51.482;7.408;2023-07-13T06:07:02;8.57;;;2.90;;
4355;SDS011;64374;51.482;7.408;2023-07-13T06:09:31;6.40;;;2.67;;
4355;SDS011;64374;51.482;7.408;2023-07-13T06:12:01;10.03;;;2.97;;
4355;SDS011;64374;51.482;7.408;2023-07-13T06:14:30;14.67;;;3.73;;
4355;SDS011;64374;51.482;7.408;2023-07-13T06:16:59;13.53;;;3.07;;
4355;SDS011;64374;51.482;7.408;2023-07-13T06:19:28;8.00;;;3.10;;
4355;SDS011;64374;51.482;7.408;2023-07-13T06:21:56;8.70;;;3.83;;
4355;SDS011;64374;51.482;7.408;2023-07-13T06:24:27;7.63;;;3.73;;
4355;SDS011;64374;51.482;7.408;2023-07-13T06:26:55;9.10;;;3.13;;
4355;SDS011;64374;51.482;7.408;2023-07-13T06:29:24;14.10;;;3.90;;
4355;SDS011;64374;51.482;7.408;2023-07-13T06:31:53;11.60;;;3.83;;
4355;SDS011;64374;51.482;7.408;2023-07-13T06:34:23;9.07;;;3.63;;
4355;SDS011;64374;51.482;7.408;2023-07-13T06:36:51;9.50;;;3.97;;
4355;SDS011;64374;51.482;7.408;2023-07-13T06:39:19;15.87;;;4.47;;
4355;SDS011;64374;51.482;7.408;2023-07-13T06:41:47;11.80;;;3.77;;
4355;SDS011;64374;51.482;7.408;2023-07-13T06:44:17;14.60;;;3.40;;
4355;SDS011;64374;51.482;7.408;2023-07-13T06:46:47;12.43;;;3.43;;
4355;SDS011;64374;51.482;7.408;2023-07-13T06:49:16;12.40;;;4.10;;
4355;SDS011;64374;51.482;7.408;2023-07-13T06:51:44;12.33;;;3.20;;
4355;SDS011;64374;51.482;7.408;2023-07-13T06:54:16;14.17;;;3.23;;
4355;SDS011;64374;51.482;7.408;2023-07-13T06:56:44;9.60;;;3.07;;
4355;SDS011;64374;51.482;7.408;2023-07-13T06:59:14;10.10;;;4.17;;
4355;SDS011;64374;51.482;7.408;2023-07-13T07:01:43;9.67;;;3.30;;
4355;SDS011;64374;51.482;7.408;2023-07-13T07:04:12;11.40;;;3.90;;
4355;SDS011;64374;51.482;7.408;2023-07-13T07:06:41;13.63;;;3.90;;
4355;SDS011;64374;51.482;7.408;2023-07-13T07:09:11;10.07;;;3.10;;
4355;SDS011;64374;51.482;7.408;2023-07-13T07:11:39;7.93;;;3.60;;
4355;SDS011;64374;51.482;7.408;2023-07-13T07:14:30;6.70;;;2.87;;
4355;SDS011;64374;51.482;7.408;2023-07-13T07:17:01;9.10;;;3.67;;
4355;SDS011;64374;51.482;7.408;2023-07-13T07:19:31;9.93;;;3.43;;
4355;SDS011;64374;51.482;7.408;2023-07-13T07:22:01;7.33;;;2.93;;
4355;SDS011;64374;51.482;7.408;2023-07-13T07:24:29;13.80;;;2.93;;
4355;SDS011;64374;51.482;7.408;2023-07-13T07:26:58;6.37;;;2.50;;
4355;SDS011;64374;51.482;7.408;2023-07-13T07:29:30;11.37;;;3.70;;
4355;SDS011;64374;51.482;7.408;2023-07-13T07:32:03;11.00;;;3.27;;
4355;SDS011;64374;51.482;7.408;2023-07-13T07:34:45;9.67;;;3.43;;
4355;SDS011;64374;51.482;7.408;2023-07-13T07:37:14;8.03;;;2.80;;
4355;SDS011;64374;51.482;7.408;2023-07-13T07:39:46;12.00;;;2.77;;
4355;SDS011;64374;51.482;7.408;2023-07-13T07:42:34;7.50;;;2.80;;
4355;SDS011;64374;51.482;7.408;2023-07-13T07:45:03;8.13;;;3.20;;
4355;SDS011;64374;51.482;7.408;2023-07-13T07:47:31;12.73;;;3.40;;
4355;SDS011;64374;51.482;7.408;2023-07-13T07:50:01;11.03;;;3.53;;
4355;SDS011;64374;51.482;7.408;2023-07-13T07:52:31;7.50;;;3.80;;
4355;SDS011;64374;51.482;7.408;2023-07-13T07:54:59;9.10;;;3.40;;
4355;SDS011;64374;51.482;7.408;2023-07-13T07:57:30;14.00;;;3.40;;
4355;SDS011;64374;51.482;7.408;2023-07-13T08:00:18;8.83;;;2.67;;
4355;SDS011;64374;51.482;7.408;2023-07-13T08:02:50;4.70;;;2.00;;
4355;SDS011;64374;51.482;7.408;2023-07-13T08:05:23;10.47;;;3.00;;
4355;SDS011;64374;51.482;7.408;2023-07-13T08:08:07;10.83;;;2.83;;
4355;SDS011;64374;51.482;7.408;2023-07-13T08:10:35;7.73;;;2.97;;
4355;SDS011;64374;51.482;7.408;2023-07-13T08:13:04;11.33;;;2.67;;
4355;SDS011;64374;51.482;7.408;2023-07-13T08:15:36;5.53;;;2.37;;
4355;SDS011;64374;51.482;7.408;2023-07-13T08:18:05;5.60;;;2.57;;
4355;SDS011;64374;51.482;7.408;2023-07-13T08:20:38;4.20;;;2.53;;
4355;SDS011;64374;51.482;7.408;2023-07-13T08:23:09;10.47;;;3.27;;
4355;SDS011;64374;51.482;7.408;2023-07-13T08:25:39;10.43;;;3.43;;
4355;SDS011;64374;51.482;7.408;2023-07-13T08:28:08;8.13;;;3.07;;
4355;SDS011;64374;51.482;7.408;2023-07-13T08:30:38;8.73;;;2.80;;
4355;SDS011;64374;51.482;7.408;2023-07-13T08:33:07;10.80;;;3.27;;
4355;SDS011;64374;51.482;7.408;2023-07-13T08:35:35;8.53;;;3.27;;
4355;SDS011;64374;51.482;7.408;2023-07-13T08:38:04;8.20;;;3.30;;
4355;SDS011;64374;51.482;7.408;2023-07-13T08:40:36;7.17;;;2.60;;
4355;SDS011;64374;51.482;7.408;2023-07-13T08:43:06;7.73;;;3.80;;
4355;SDS011;64374;51.482;7.408;2023-07-13T08:45:41;10.93;;;2.87;;
4355;SDS011;64374;51.482;7.408;2023-07-13T08:48:13;4.47;;;2.40;;
4355;SDS011;64374;51.482;7.408;2023-07-13T08:50:49;9.33;;;2.57;;
4355;SDS011;64374;51.482;7.408;2023-07-13T08:53:30;8.53;;;3.10;;
4355;SDS011;64374;51.482;7.408;2023-07-13T08:56:04;6.67;;;2.60;;
4355;SDS011;64374;51.482;7.408;2023-07-13T08:58:38;7.57;;;2.40;;
4355;SDS011;64374;51.482;7.408;2023-07-13T09:01:12;8.87;;;3.00;;
4355;SDS011;64374;51.482;7.408;2023-07-13T09:03:50;7.30;;;2.70;;
4355;SDS011;64374;51.482;7.408;2023-07-13T09:06:28;13.90;;;3.80;;
4355;SDS011;64374;51.482;7.408;2023-07-13T09:09:05;8.90;;;2.80;;
4355;SDS011;64374;51.482;7.408;2023-07-13T09:11:43;5.10;;;2.43;;
4355;SDS011;64374;51.482;7.408;2023-07-13T09:14:25;9.90;;;2.90;;
4355;SDS011;64374;51.482;7.408;2023-07-13T09:17:02;7.37;;;2.83;;
4355;SDS011;64374;51.482;7.408;2023-07-13T09:19:33;6.20;;;2.23;;
4355;SDS011;64374;51.482;7.408;2023-07-13T09:22:03;12.30;;;3.53;;
4355;SDS011;64374;51.482;7.408;2023-07-13T09:24:46;13.10;;;3.37;;
4355;SDS011;64374;51.482;7.408;2023-07-13T09:27:21;7.23;;;3.00;;
4355;SDS011;64374;51.482;7.408;2023-07-13T09:29:57;7.00;;;3.30;;
4355;SDS011;64374;51.482;7.408;2023-07-13T09:32:47;8.40;;;3.23;;
4355;SDS011;64374;51.482;7.408;2023-07-13T09:35:19;6.17;;;2.53;;
4355;SDS011;64374;51.482;7.408;2023-07-13T09:37:49;6.87;;;2.33;;
4355;SDS011;64374;51.482;7.408;2023-07-13T09:40:22;6.13;;;2.20;;
4355;SDS011;64374;51.482;7.408;2023-07-13T09:42:53;4.50;;;2.10;;
4355;SDS011;64374;51.482;7.408;2023-07-13T09:45:28;14.13;;;3.27;;
4355;SDS011;64374;51.482;7.408;2023-07-13T09:48:04;4.50;;;2.60;;
4355;SDS011;64374;51.482;7.408;2023-07-13T09:50:34;8.50;;;2.63;;
4355;SDS011;64374;51.482;7.408;2023-07-13T09:53:03;4.80;;;2.43;;
4355;SDS011;64374;51.482;7.408;2023-07-13T09:55:41;6.73;;;2.93;;
4355;SDS011;64374;51.482;7.408;2023-07-13T09:58:12;9.83;;;3.30;;
4355;SDS011;64374;51.482;7.408;2023-07-13T10:00:43;12.90;;;3.73;;
4355;SDS011;64374;51.482;7.408;2023-07-13T10:03:22;7.60;;;2.77;;
4355;SDS011;64374;51.482;7.408;2023-07-13T10:05:55;7.67;;;2.63;;
4355;SDS011;64374;51.482;7.408;2023-07-13T10:08:43;5.60;;;2.50;;
4355;SDS011;64374;51.482;7.408;2023-07-13T10:11:17;7.30;;;2.70;;
4355;SDS011;64374;51.482;7.408;2023-07-13T10:13:50;8.27;;;3.17;;
4355;SDS011;64374;51.482;7.408;2023-07-13T10:16:22;5.03;;;2.53;;
4355;SDS011;64374;51.482;7.408;2023-07-13T10:18:53;10.37;;;3.50;;
4355;SDS011;64374;51.482;7.408;2023-07-13T10:21:28;7.23;;;3.10;;
4355;SDS011;64374;51.482;7.408;2023-07-13T10:24:04;5.83;;;2.63;;
4355;SDS011;64374;51.482;7.408;2023-07-13T10:26:48;7.93;;;2.67;;
4355;SDS011;64374;51.482;7.408;2023-07-13T10:29:22;5.00;;;2.43;;
4355;SDS011;64374;51.482;7.408;2023-07-13T10:31:54;8.10;;;2.77;;
4355;SDS011;64374;51.482;7.408;2023-07-13T10:34:24;5.83;;;2.23;;
4355;SDS011;64374;51.482;7.408;2023-07-13T10:36:54;11.60;;;2.60;;
4355;SDS011;64374;51.482;7.408;2023-07-13T10:39:24;4.90;;;2.37;;
4355;SDS011;64374;51.482;7.408;2023-07-13T10:41:57;9.00;;;2.20;;
4355;SDS011;64374;51.482;7.408;2023-07-13T10:44:30;6.60;;;2.60;;
4355;SDS011;64374;51.482;7.408;2023-07-13T10:46:59;5.10;;;3.23;;
4355;SDS011;64374;51.482;7.408;2023-07-13T10:49:31;9.63;;;2.90;;
4355;SDS011;64374;51.482;7.408;2023-07-13T10:52:02;10.73;;;2.97;;
4355;SDS011;64374;51.482;7.408;2023-07-13T10:54:31;12.83;;;2.40;;
4355;SDS011;64374;51.482;7.408;2023-07-13T10:57:16;5.63;;;2.87;;
4355;SDS011;64374;51.482;7.408;2023-07-13T10:59:47;9.17;;;3.50;;
4355;SDS011;64374;51.482;7.408;2023-07-13T11:02:21;6.73;;;2.73;;
4355;SDS011;64374;51.482;7.408;2023-07-13T11:04:55;10.90;;;3.13;;
4355;SDS011;64374;51.482;7.408;2023-07-13T11:07:26;5.23;;;2.80;;
4355;SDS011;64374;51.482;7.408;2023-07-13T11:09:57;8.17;;;2.80;;
4355;SDS011;64374;51.482;7.408;2023-07-13T11:18:19;4.77;;;2.70;;
4355;SDS011;64374;51.482;7.408;2023-07-13T11:20:50;6.63;;;2.90;;
4355;SDS011;64374;51.482;7.408;2023-07-13T11:23:28;10.27;;;2.80;;
4355;SDS011;64374;51.482;7.408;2023-07-13T11:25:59;5.13;;;3.07;;
4355;SDS011;64374;51.482;7.408;2023-07-13T11:28:31;8.53;;;2.67;;
4355;SDS011;64374;51.482;7.408;2023-07-13T11:31:02;6.50;;;2.63;;
4355;SDS011;64374;51.482;7.408;2023-07-13T11:33:53;5.17;;;2.40;;
4355;SDS011;64374;51.482;7.408;2023-07-13T11:36:27;7.50;;;2.37;;
4355;SDS011;64374;51.482;7.408;2023-07-13T11:39:12;3.77;;;2.20;;
4355;SDS011;64374;51.482;7.408;2023-07-13T11:41:47;9.70;;;3.40;;
4355;SDS011;64374;51.482;7.408;2023-07-13T11:44:23;11.27;;;2.43;;
4355;SDS011;64374;51.482;7.408;2023-07-13T11:46:54;3.40;;;2.13;;
4355;SDS011;64374;51.482;7.408;2023-07-13T11:49:29;6.03;;;3.10;;
4355;SDS011;64374;51.482;7.408;2023-07-13T11:51:59;5.43;;;2.30;;
4355;SDS011;64374;51.482;7.408;2023-07-13T11:54:29;6.70;;;2.33;;
4355;SDS011;64374;51.482;7.408;2023-07-13T11:57:01;6.47;;;2.30;;
4355;SDS011;64374;51.482;7.408;2023-07-13T11:59:37;3.00;;;2.40;;
4355;SDS011;64374;51.482;7.408;2023-07-13T12:02:12;5.70;;;2.37;;
4355;SDS011;64374;51.482;7.408;2023-07-13T12:04:45;6.50;;;3.20;;
4355;SDS011;64374;51.482;7.408;2023-07-13T12:07:14;6.23;;;2.70;;
4355;SDS011;64374;51.482;7.408;2023-07-13T12:09:45;5.70;;;2.67;;
4355;SDS011;64374;51.482;7.408;2023-07-13T12:12:14;4.47;;;2.70;;
4355;SDS011;64374;51.482;7.408;2023-07-13T12:14:47;4.63;;;2.30;;
4355;SDS011;64374;51.482;7.408;2023-07-13T12:17:20;3.80;;;2.20;;
4355;SDS011;64374;51.482;7.408;2023-07-13T12:19:50;4.17;;;2.30;;
4355;SDS011;64374;51.482;7.408;2023-07-13T12:22:19;3.67;;;1.80;;
4355;SDS011;64374;51.482;7.408;2023-07-13T12:24:49;3.20;;;1.93;;
4355;SDS011;64374;51.482;7.408;2023-07-13T12:27:21;8.50;;;2.80;;
4355;SDS011;64374;51.482;7.408;2023-07-13T12:29:59;6.13;;;2.77;;
4355;SDS011;64374;51.482;7.408;2023-07-13T12:32:30;3.67;;;1.77;;
4355;SDS011;64374;51.482;7.408;2023-07-13T12:35:06;3.43;;;2.23;;
4355;SDS011;64374;51.482;7.408;2023-07-13T12:37:41;4.50;;;2.10;;
4355;SDS011;64374;51.482;7.408;2023-07-13T12:40:12;6.80;;;2.57;;
4355;SDS011;64374;51.482;7.408;2023-07-13T12:42:42;5.60;;;1.90;;
4355;SDS011;64374;51.482;7.408;2023-07-13T12:45:16;5.90;;;2.73;;
4355;SDS011;64374;51.482;7.408;2023-07-13T12:47:48;6.00;;;2.57;;
4355;SDS011;64374;51.482;7.408;2023-07-13T12:50:18;4.70;;;2.20;;
4355;SDS011;64374;51.482;7.408;2023-07-13T12:52:51;6.27;;;2.23;;
4355;SDS011;64374;51.482;7.408;2023-07-13T12:55:21;4.30;;;2.17;;
4355;SDS011;64374;51.482;7.408;2023-07-13T12:57:51;4.40;;;2.17;;
4355;SDS011;64374;51.482;7.408;2023-07-13T13:00:27;8.50;;;2.57;;
4355;SDS011;64374;51.482;7.408;2023-07-13T13:03:02;7.13;;;2.40;;
4355;SDS011;64374;51.482;7.408;2023-07-13T13:05:56;5.83;;;2.17;;
4355;SDS011;64374;51.482;7.408;2023-07-13T13:08:27;6.40;;;2.63;;
4355;SDS011;64374;51.482;7.408;2023-07-13T13:10:55;3.67;;;2.37;;
4355;SDS011;64374;51.482;7.408;2023-07-13T13:13:24;7.40;;;2.63;;
4355;SDS011;64374;51.482;7.408;2023-07-13T13:15:54;5.77;;;2.50;;
4355;SDS011;64374;51.482;7.408;2023-07-13T13:18:26;7.13;;;2.27;;
4355;SDS011;64374;51.482;7.408;2023-07-13T13:20:55;7.80;;;2.13;;
4355;SDS011;64374;51.482;7.408;2023-07-13T13:23:23;5.03;;;2.17;;
4355;SDS011;64374;51.482;7.408;2023-07-13T13:25:52;3.37;;;2.23;;
4355;SDS011;64374;51.482;7.408;2023-07-13T13:28:20;8.20;;;2.37;;
4355;SDS011;64374;51.482;7.408;2023-07-13T13:30:49;3.57;;;1.90;;
4355;SDS011;64374;51.482;7.408;2023-07-13T13:33:20;5.90;;;2.40;;
4355;SDS011;64374;51.482;7.408;2023-07-13T13:35:50;5.63;;;1.90;;
4355;SDS011;64374;51.482;7.408;2023-07-13T13:38:19;4.17;;;2.00;;
4355;SDS011;64374;51.482;7.408;2023-07-13T13:40:51;3.80;;;2.37;;
4355;SDS011;64374;51.482;7.408;2023-07-13T13:43:23;4.97;;;2.17;;
4355;SDS011;64374;51.482;7.408;2023-07-13T13:45:55;5.17;;;2.30;;
4355;SDS011;64374;51.482;7.408;2023-07-13T13:48:26;4.23;;;2.50;;
4355;SDS011;64374;51.482;7.408;2023-07-13T13:50:58;7.53;;;2.63;;
4355;SDS011;64374;51.482;7.408;2023-07-13T13:53:27;10.63;;;2.37;;
4355;SDS011;64374;51.482;7.408;2023-07-13T13:55:56;3.50;;;2.10;;
4355;SDS011;64374;51.482;7.408;2023-07-13T13:58:28;4.03;;;2.40;;
4355;SDS011;64374;51.482;7.408;2023-07-13T14:00:56;9.33;;;2.80;;
4355;SDS011;64374;51.482;7.408;2023-07-13T14:03:29;3.63;;;2.33;;
4355;SDS011;64374;51.482;7.408;2023-07-13T14:05:57;7.43;;;2.90;;
4355;SDS011;64374;51.482;7.408;2023-07-13T14:08:25;4.50;;;2.50;;
4355;SDS011;64374;51.482;7.408;2023-07-13T14:10:54;4.30;;;2.53;;
4355;SDS011;64374;51.482;7.408;2023-07-13T14:13:26;4.57;;;2.47;;
4355;SDS011;64374;51.482;7.408;2023-07-13T14:15:58;5.20;;;2.80;;
4355;SDS011;64374;51.482;7.408;2023-07-13T14:18:28;3.93;;;2.13;;
4355;SDS011;64374;51.482;7.408;2023-07-13T14:20:56;3.47;;;2.37;;
4355;SDS011;64374;51.482;7.408;2023-07-13T14:23:25;4.80;;;2.47;;
4355;SDS011;64374;51.482;7.408;2023-07-13T14:25:53;3.67;;;2.50;;
4355;SDS011;64374;51.482;7.408;2023-07-13T14:28:29;4.30;;;2.33;;
4355;SDS011;64374;51.482;7.408;2023-07-13T14:30:58;4.60;;;2.97;;
4355;SDS011;64374;51.482;7.408;2023-07-13T14:33:27;5.40;;;2.57;;
4355;SDS011;64374;51.482;7.408;2023-07-13T14:35:57;4.10;;;2.40;;
4355;SDS011;64374;51.482;7.408;2023-07-13T14:38:25;5.43;;;2.40;;
4355;SDS011;64374;51.482;7.408;2023-07-13T14:40:54;5.77;;;2.73;;
4355;SDS011;64374;51.482;7.408;2023-07-13T14:43:22;1.97;;;1.80;;
4355;SDS011;64374;51.482;7.408;2023-07-13T14:45:54;4.27;;;2.70;;
4355;SDS011;64374;51.482;7.408;2023-07-13T14:48:23;3.63;;;2.13;;
4355;SDS011;64374;51.482;7.408;2023-07-13T14:50:55;3.77;;;2.07;;
4355;SDS011;64374;51.482;7.408;2023-07-13T14:53:25;2.90;;;2.23;;
4355;SDS011;64374;51.482;7.408;2023-07-13T14:55:55;6.90;;;3.27;;
4355;SDS011;64374;51.482;7.408;2023-07-13T14:58:23;11.17;;;4.00;;
4355;SDS011;64374;51.482;7.408;2023-07-13T15:00:52;7.70;;;3.90;;
4355;SDS011;64374;51.482;7.408;2023-07-13T15:03:23;8.33;;;4.13;;
4355;SDS011;64374;51.482;7.408;2023-07-13T15:05:54;8.07;;;4.20;;
4355;SDS011;64374;51.482;7.408;2023-07-13T15:08:24;4.37;;;3.90;;
4355;SDS011;64374;51.482;7.408;2023-07-13T15:10:52;9.40;;;3.87;;
4355;SDS011;64374;51.482;7.408;2023-07-13T15:13:24;7.73;;;4.10;;
4355;SDS011;64374;51.482;7.408;2023-07-13T15:15:52;7.93;;;3.87;;
4355;SDS011;64374;51.482;7.408;2023-07-13T15:18:22;8.73;;;4.00;;
4355;SDS011;64374;51.482;7.408;2023-07-13T15:20:55;7.50;;;4.43;;
4355;SDS011;64374;51.482;7.408;2023-07-13T15:23:29;7.23;;;4.13;;
4355;SDS011;64374;51.482;7.408;2023-07-13T15:25:57;7.33;;;4.20;;
4355;SDS011;64374;51.482;7.408;2023-07-13T15:28:26;10.60;;;4.10;;
4355;SDS011;64374;51.482;7.408;2023-07-13T15:30:54;7.03;;;3.93;;
4355;SDS011;64374;51.482;7.408;2023-07-13T15:33:24;6.07;;;3.70;;